VJC808 VVDN-VVTS
Flight info
| Callsign | VJC808 |
|---|---|
| Flight time | N/A |
| Altitude | 34000 |
| Route | SADIN1G SADIN Q1 DOVIN DOVIN5Q |
| Aircraft | A321/M-SDE3FGHIRWY/LB1 |
Departure
| Time | 2026-05-04 10:29 |
|---|---|
| Airport | Da Nang International Airport (VVDN) |
Arrival
| Time | N/A |
|---|---|
| Airport | Tan Son Nhat International Airport (VVTS) |
| Time | Latitude | Longitude | Altitude | Speed | Heading |
|---|---|---|---|---|---|
| 2026-05-04 10:19 | 16.05409 | 108.20162 | 48 ft | 0 kts | 82° |
| 2026-05-04 10:21 | 16.05409 | 108.20163 | 48 ft | 0 kts | 82° |
| 2026-05-04 10:21 | 16.05410 | 108.20168 | 48 ft | 1 kts | 82° |
| 2026-05-04 10:21 | 16.05410 | 108.20172 | 48 ft | 0 kts | 82° |
| 2026-05-04 10:22 | 16.05409 | 108.20162 | 48 ft | 2 kts | 81° |
| 2026-05-04 10:23 | 16.05407 | 108.20146 | 48 ft | 2 kts | 82° |
| 2026-05-04 10:23 | 16.05405 | 108.20131 | 48 ft | 2 kts | 82° |
| 2026-05-04 10:25 | 16.05448 | 108.20079 | 48 ft | 0 kts | 173° |
| 2026-05-04 10:26 | 16.05447 | 108.20079 | 48 ft | 0 kts | 173° |
| 2026-05-04 10:26 | 16.05421 | 108.20082 | 48 ft | 10 kts | 174° |
| 2026-05-04 10:27 | 16.05283 | 108.20090 | 50 ft | 31 kts | 178° |
| 2026-05-04 10:27 | 16.04979 | 108.20106 | 50 ft | 52 kts | 176° |
| 2026-05-04 10:27 | 16.04578 | 108.20152 | 53 ft | 63 kts | 172° |
| 2026-05-04 10:27 | 16.04109 | 108.20218 | 54 ft | 73 kts | 173° |
| 2026-05-04 10:28 | 16.03609 | 108.20297 | 53 ft | 69 kts | 172° |
| 2026-05-04 10:28 | 16.03218 | 108.20348 | 56 ft | 35 kts | 172° |
| 2026-05-04 10:28 | 16.03076 | 108.20302 | 57 ft | 17 kts | 262° |
| 2026-05-04 10:28 | 16.03131 | 108.20221 | 56 ft | 16 kts | 351° |
| 2026-05-04 10:29 | 16.03347 | 108.20191 | 54 ft | 61 kts | 352° |
| 2026-05-04 10:29 | 16.03992 | 108.20097 | 55 ft | 125 kts | 352° |
| 2026-05-04 10:29 | 16.05057 | 108.19942 | 63 ft | 177 kts | 352° |
| 2026-05-04 10:29 | 16.06267 | 108.19746 | 663 ft | 176 kts | 354° |
| 2026-05-04 10:30 | 16.07499 | 108.19668 | 1296 ft | 178 kts | 2° |
| 2026-05-04 10:30 | 16.08739 | 108.19659 | 1934 ft | 181 kts | 1° |
| 2026-05-04 10:30 | 16.10034 | 108.19642 | 2266 ft | 190 kts | 1° |
| 2026-05-04 10:30 | 16.11393 | 108.19624 | 2529 ft | 202 kts | 1° |
| 2026-05-04 10:31 | 16.12861 | 108.19601 | 2785 ft | 215 kts | 1° |
| 2026-05-04 10:31 | 16.14431 | 108.19614 | 2970 ft | 233 kts | 9° |
| 2026-05-04 10:32 | 16.17588 | 108.29180 | 6010 ft | 271 kts | 89° |
| 2026-05-04 10:33 | 16.17609 | 108.31154 | 6646 ft | 274 kts | 89° |
| 2026-05-04 10:33 | 16.17631 | 108.33125 | 7277 ft | 276 kts | 89° |
| 2026-05-04 10:33 | 16.17607 | 108.35126 | 7885 ft | 279 kts | 97° |
| 2026-05-04 10:33 | 16.16911 | 108.37005 | 8446 ft | 283 kts | 125° |
| 2026-05-04 10:34 | 16.15439 | 108.38357 | 9033 ft | 287 kts | 151° |
| 2026-05-04 10:34 | 16.13526 | 108.38908 | 9579 ft | 293 kts | 175° |
| 2026-05-04 10:34 | 16.11474 | 108.38924 | 10137 ft | 296 kts | 178° |
| 2026-05-04 10:34 | 16.09375 | 108.38924 | 10449 ft | 309 kts | 178° |
| 2026-05-04 10:35 | 16.07180 | 108.38940 | 10700 ft | 323 kts | 178° |
| 2026-05-04 10:35 | 16.04860 | 108.38964 | 10947 ft | 336 kts | 178° |
| 2026-05-04 10:35 | 16.02492 | 108.38994 | 11232 ft | 347 kts | 178° |
| 2026-05-04 10:35 | 16.00025 | 108.39024 | 11692 ft | 351 kts | 178° |
| 2026-05-04 10:36 | 15.97573 | 108.39043 | 12258 ft | 352 kts | 178° |
| 2026-05-04 10:36 | 15.95134 | 108.39074 | 12729 ft | 355 kts | 178° |
| 2026-05-04 10:36 | 15.92624 | 108.39117 | 13169 ft | 359 kts | 178° |
| 2026-05-04 10:36 | 15.90140 | 108.39158 | 13625 ft | 361 kts | 178° |
| 2026-05-04 10:37 | 15.87577 | 108.39196 | 14083 ft | 363 kts | 179° |
| 2026-05-04 10:37 | 15.85069 | 108.39231 | 14533 ft | 366 kts | 179° |
| 2026-05-04 10:37 | 15.82480 | 108.39265 | 14985 ft | 368 kts | 179° |
| 2026-05-04 10:37 | 15.79916 | 108.39297 | 15424 ft | 370 kts | 179° |
| 2026-05-04 10:39 | 15.64158 | 108.39489 | 17879 ft | 383 kts | 180° |
| 2026-05-04 10:39 | 15.61458 | 108.39522 | 18274 ft | 384 kts | 180° |
| 2026-05-04 10:39 | 15.58812 | 108.39555 | 18652 ft | 386 kts | 180° |
| 2026-05-04 10:40 | 15.56108 | 108.39488 | 19026 ft | 387 kts | 186° |
| 2026-05-04 10:40 | 15.53468 | 108.38992 | 19400 ft | 387 kts | 195° |
| 2026-05-04 10:40 | 15.50899 | 108.38045 | 19767 ft | 388 kts | 204° |
| 2026-05-04 10:40 | 15.48452 | 108.36909 | 20126 ft | 390 kts | 205° |
| 2026-05-04 10:41 | 15.45949 | 108.35711 | 20460 ft | 392 kts | 205° |
| 2026-05-04 10:41 | 15.43486 | 108.34531 | 20799 ft | 393 kts | 205° |
| 2026-05-04 10:41 | 15.40971 | 108.33331 | 21165 ft | 395 kts | 205° |
| 2026-05-04 10:41 | 15.38488 | 108.32152 | 21520 ft | 396 kts | 205° |
| 2026-05-04 10:42 | 15.35979 | 108.30963 | 21858 ft | 398 kts | 204° |
| 2026-05-04 10:42 | 15.33436 | 108.29760 | 22179 ft | 400 kts | 205° |
| 2026-05-04 10:42 | 15.30895 | 108.28559 | 22524 ft | 401 kts | 204° |
| 2026-05-04 10:42 | 15.28336 | 108.27351 | 22840 ft | 403 kts | 205° |
| 2026-05-04 10:43 | 15.25769 | 108.26138 | 23147 ft | 405 kts | 205° |
| 2026-05-04 10:44 | 15.07308 | 108.18070 | 25176 ft | 420 kts | 192° |
| 2026-05-04 10:45 | 15.04425 | 108.17677 | 25427 ft | 423 kts | 185° |
| 2026-05-04 10:45 | 15.01446 | 108.17565 | 25702 ft | 425 kts | 182° |
| 2026-05-04 10:45 | 14.98466 | 108.17503 | 25970 ft | 427 kts | 182° |
| 2026-05-04 10:45 | 14.95500 | 108.17451 | 26224 ft | 429 kts | 182° |
| 2026-05-04 10:46 | 14.92503 | 108.17395 | 26464 ft | 432 kts | 182° |
| 2026-05-04 10:46 | 14.89477 | 108.17335 | 26703 ft | 434 kts | 182° |
| 2026-05-04 10:46 | 14.86442 | 108.17272 | 26949 ft | 436 kts | 182° |
| 2026-05-04 10:46 | 14.83405 | 108.17206 | 27167 ft | 438 kts | 182° |
| 2026-05-04 10:47 | 14.80306 | 108.17139 | 27299 ft | 443 kts | 182° |
| 2026-05-04 10:47 | 14.77232 | 108.17072 | 27467 ft | 446 kts | 182° |
| 2026-05-04 10:47 | 14.74075 | 108.17002 | 27691 ft | 447 kts | 182° |
| 2026-05-04 10:47 | 14.70962 | 108.16933 | 27904 ft | 449 kts | 182° |
| 2026-05-04 10:49 | 14.48981 | 108.16447 | 29961 ft | 447 kts | 182° |
| 2026-05-04 10:49 | 14.45879 | 108.16377 | 30281 ft | 446 kts | 182° |
| 2026-05-04 10:50 | 14.42762 | 108.16306 | 30567 ft | 446 kts | 183° |
| 2026-05-04 10:51 | 14.20822 | 108.15829 | 32036 ft | 453 kts | 183° |
| 2026-05-04 10:52 | 14.17671 | 108.15762 | 32033 ft | 453 kts | 182° |
| 2026-05-04 10:52 | 14.11355 | 108.15624 | 32022 ft | 454 kts | 182° |
| 2026-05-04 10:54 | 13.85984 | 108.15083 | 31993 ft | 454 kts | 182° |
| 2026-05-04 10:56 | 13.60573 | 108.14524 | 31945 ft | 455 kts | 183° |
| 2026-05-04 10:57 | 13.54251 | 108.14385 | 31934 ft | 455 kts | 183° |
| 2026-05-04 10:57 | 13.47874 | 108.14245 | 31918 ft | 455 kts | 182° |
| 2026-05-04 10:58 | 13.41519 | 108.14102 | 31914 ft | 455 kts | 182° |
| 2026-05-04 10:58 | 13.35178 | 108.13963 | 31918 ft | 456 kts | 182° |
| 2026-05-04 10:59 | 13.28844 | 108.13820 | 31922 ft | 456 kts | 183° |
| 2026-05-04 10:59 | 13.22449 | 108.13668 | 31925 ft | 456 kts | 182° |
| 2026-05-04 11:00 | 13.16080 | 108.13516 | 31926 ft | 456 kts | 182° |
| 2026-05-04 11:02 | 12.90671 | 108.12904 | 31910 ft | 456 kts | 182° |
| 2026-05-04 11:05 | 12.42887 | 108.11857 | 31924 ft | 456 kts | 182° |
| 2026-05-04 11:06 | 12.36502 | 108.11729 | 31939 ft | 456 kts | 182° |
| 2026-05-04 11:06 | 12.30143 | 108.11601 | 31962 ft | 456 kts | 182° |
| 2026-05-04 11:10 | 11.86518 | 108.06524 | 32005 ft | 451 kts | 212° |
| 2026-05-04 11:12 | 11.66573 | 107.90824 | 31971 ft | 450 kts | 219° |
| 2026-05-04 11:12 | 11.61623 | 107.86875 | 31987 ft | 450 kts | 219° |
| 2026-05-04 11:13 | 11.56673 | 107.82928 | 31990 ft | 450 kts | 218° |
| 2026-05-04 11:13 | 11.51734 | 107.78994 | 31990 ft | 450 kts | 219° |
| 2026-05-04 11:14 | 11.50932 | 107.78355 | 31988 ft | 450 kts | 219° |
| 2026-05-04 11:16 | 11.27042 | 107.59344 | 31892 ft | 449 kts | 218° |
| 2026-05-04 11:16 | 11.24582 | 107.57390 | 31700 ft | 447 kts | 218° |
| 2026-05-04 11:16 | 11.22125 | 107.55434 | 30836 ft | 454 kts | 217° |
| 2026-05-04 11:17 | 11.19609 | 107.53433 | 29657 ft | 463 kts | 217° |
| 2026-05-04 11:17 | 11.17065 | 107.51415 | 28608 ft | 469 kts | 217° |
| 2026-05-04 11:19 | 10.99365 | 107.37361 | 23881 ft | 448 kts | 217° |
| 2026-05-04 11:19 | 10.96919 | 107.35428 | 23252 ft | 442 kts | 217° |
| 2026-05-04 11:19 | 10.94501 | 107.33515 | 22428 ft | 437 kts | 217° |
| 2026-05-04 11:19 | 10.92119 | 107.31628 | 21559 ft | 433 kts | 217° |
| 2026-05-04 11:20 | 10.89753 | 107.29752 | 20716 ft | 428 kts | 217° |
| 2026-05-04 11:20 | 10.87416 | 107.27899 | 19890 ft | 423 kts | 217° |
| 2026-05-04 11:20 | 10.85115 | 107.26073 | 19069 ft | 419 kts | 217° |
| 2026-05-04 11:20 | 10.82810 | 107.24246 | 18256 ft | 414 kts | 217° |
| 2026-05-04 11:22 | 10.75485 | 107.07685 | 14581 ft | 374 kts | 262° |
| 2026-05-04 11:22 | 10.75149 | 107.05064 | 14116 ft | 373 kts | 262° |
| 2026-05-04 11:23 | 10.74808 | 107.02467 | 13652 ft | 371 kts | 262° |
| 2026-05-04 11:23 | 10.74466 | 106.99889 | 13178 ft | 370 kts | 262° |
| 2026-05-04 11:24 | 10.72425 | 106.84679 | 10990 ft | 336 kts | 263° |
| 2026-05-04 11:25 | 10.72110 | 106.82357 | 10838 ft | 324 kts | 262° |
| 2026-05-04 11:25 | 10.71499 | 106.80217 | 10790 ft | 310 kts | 244° |
| 2026-05-04 11:25 | 10.70276 | 106.78400 | 10380 ft | 312 kts | 229° |
| 2026-05-04 11:26 | 10.67286 | 106.75145 | 9401 ft | 319 kts | 226° |
| 2026-05-04 11:27 | 10.56800 | 106.63818 | 6946 ft | 301 kts | 218° |
| 2026-05-04 11:28 | 10.55153 | 106.62557 | 6938 ft | 289 kts | 216° |
| 2026-05-04 11:28 | 10.53578 | 106.61303 | 6933 ft | 284 kts | 224° |
| 2026-05-04 11:28 | 10.52327 | 106.59769 | 6937 ft | 281 kts | 238° |
| 2026-05-04 11:28 | 10.51348 | 106.58044 | 6940 ft | 279 kts | 243° |
| 2026-05-04 11:29 | 10.50438 | 106.56301 | 6937 ft | 279 kts | 243° |
| 2026-05-04 11:29 | 10.49530 | 106.54563 | 6935 ft | 278 kts | 243° |
| 2026-05-04 11:29 | 10.48617 | 106.52845 | 6941 ft | 278 kts | 242° |
| 2026-05-04 11:29 | 10.47685 | 106.51110 | 6942 ft | 278 kts | 243° |
| 2026-05-04 11:31 | 10.48043 | 106.37837 | 6938 ft | 272 kts | 281° |
| 2026-05-04 11:33 | 10.56459 | 106.28973 | 6933 ft | 248 kts | 7° |
| 2026-05-04 11:33 | 10.58133 | 106.29449 | 6946 ft | 258 kts | 30° |
| 2026-05-04 11:33 | 10.59511 | 106.30644 | 6743 ft | 264 kts | 53° |
| 2026-05-04 11:34 | 10.60479 | 106.32247 | 6371 ft | 264 kts | 58° |
| 2026-05-04 11:34 | 10.61419 | 106.33845 | 6005 ft | 263 kts | 58° |
| 2026-05-04 11:34 | 10.62363 | 106.35431 | 5642 ft | 263 kts | 58° |
| 2026-05-04 11:34 | 10.63318 | 106.37026 | 5279 ft | 262 kts | 58° |
| 2026-05-04 11:35 | 10.64269 | 106.38613 | 4930 ft | 261 kts | 59° |
| 2026-05-04 11:35 | 10.65214 | 106.40191 | 4576 ft | 260 kts | 59° |
| 2026-05-04 11:35 | 10.66152 | 106.41756 | 4224 ft | 259 kts | 59° |
| 2026-05-04 11:35 | 10.67083 | 106.43310 | 4009 ft | 252 kts | 60° |
| 2026-05-04 11:36 | 10.68053 | 106.44746 | 3880 ft | 244 kts | 47° |
| 2026-05-04 11:36 | 10.69415 | 106.45734 | 3654 ft | 242 kts | 27° |
| 2026-05-04 11:36 | 10.70963 | 106.46430 | 3608 ft | 240 kts | 26° |
| 2026-05-04 11:36 | 10.72519 | 106.47111 | 3498 ft | 240 kts | 26° |
| 2026-05-04 11:37 | 10.74042 | 106.47784 | 3349 ft | 239 kts | 27° |
| 2026-05-04 11:37 | 10.75576 | 106.48498 | 3146 ft | 238 kts | 34° |
| 2026-05-04 11:37 | 10.76676 | 106.49679 | 2901 ft | 230 kts | 68° |
| 2026-05-04 11:37 | 10.77175 | 106.51220 | 2541 ft | 231 kts | 77° |
| 2026-05-04 11:38 | 10.77606 | 106.52799 | 2220 ft | 232 kts | 76° |
| 2026-05-04 11:38 | 10.78082 | 106.54341 | 1962 ft | 219 kts | 75° |
| 2026-05-04 11:38 | 10.78566 | 106.55750 | 1972 ft | 207 kts | 74° |
| 2026-05-04 11:38 | 10.78819 | 106.56454 | 2013 ft | 195 kts | 73° |
| 2026-05-04 11:40 | 10.79678 | 106.58807 | 1217 ft | 188 kts | 74° |
| 2026-05-04 11:41 | 10.80115 | 106.60047 | 722 ft | 181 kts | 74° |
| 2026-05-04 11:41 | 10.80542 | 106.61170 | 506 ft | 164 kts | 71° |
| 2026-05-04 11:41 | 10.80950 | 106.62206 | 271 ft | 151 kts | 74° |
| 2026-05-04 11:41 | 10.81309 | 106.63199 | 131 ft | 148 kts | 73° |
| 2026-05-04 11:42 | 10.81669 | 106.64160 | 26 ft | 135 kts | 72° |